Time;durP1;ratioP1;P1;durP2;ratioP2;P2;SDS_P1;SDS_P2;PMS_P1;PMS_P2;Temp;Humidity;BMP_temperature;BMP_pressure;BME280_temperature;BME280_humidity;BME280_pressure;Samples;Min_cycle;Max_cycle;Signal;HPM_P1;HPM_P2
2024/04/18 00:02:10;;;;;;;0.00;0.00;;;19.90;44.10;;;;;;5382877;26;20276;-47
2024/04/18 00:04:42;;;;;;;0.00;0.00;;;20.00;44.10;;;;;;5375453;26;20233;-49
2024/04/18 00:07:12;;;;;;;0.10;0.10;;;20.00;44.00;;;;;;5405795;26;20229;-47
2024/04/18 00:09:45;;;;;;;0.00;0.00;;;20.00;43.80;;;;;;5346248;26;20225;-48
2024/04/18 00:12:15;;;;;;;0.00;0.00;;;20.00;43.60;;;;;;5403464;26;20214;-46
2024/04/18 00:14:51;;;;;;;0.10;0.10;;;20.10;43.90;;;;;;5406286;26;20285;-49
2024/04/18 00:17:20;;;;;;;0.10;0.10;;;20.10;44.30;;;;;;5403620;26;20268;-47
2024/04/18 00:19:53;;;;;;;0.00;0.00;;;20.10;44.40;;;;;;5405834;26;20222;-46
2024/04/18 00:22:23;;;;;;;0.10;0.10;;;20.20;44.60;;;;;;5405400;26;20222;-48
2024/04/18 00:24:56;;;;;;;0.00;0.00;;;20.20;44.70;;;;;;5405918;26;20234;-48
2024/04/18 00:27:26;;;;;;;0.00;0.00;;;20.30;44.80;;;;;;5405564;26;20698;-48
2024/04/18 00:30:02;;;;;;;0.00;0.00;;;20.30;45.00;;;;;;5405351;26;20222;-47
2024/04/18 00:32:32;;;;;;;0.00;0.00;;;20.30;45.10;;;;;;5405500;26;20324;-47
2024/04/18 00:35:05;;;;;;;0.00;0.00;;;20.40;45.10;;;;;;5375403;26;20603;-47
2024/04/18 00:37:34;;;;;;;0.00;0.00;;;20.40;45.80;;;;;;5405484;26;20222;-47
2024/04/18 00:40:09;;;;;;;0.00;0.00;;;20.40;45.20;;;;;;5405741;26;20269;-47
2024/04/18 00:42:39;;;;;;;0.00;0.00;;;20.50;45.30;;;;;;5405625;26;20720;-48
2024/04/18 00:45:15;;;;;;;0.00;0.00;;;20.50;45.40;;;;;;5405772;26;20297;-49
2024/04/18 00:47:45;;;;;;;0.00;0.00;;;20.50;45.50;;;;;;5405457;26;20229;-50
2024/04/18 00:50:18;;;;;;;0.00;0.00;;;20.60;45.60;;;;;;5404618;26;20233;-47
2024/04/18 00:52:49;;;;;;;0.00;0.00;;;20.60;45.70;;;;;;5405364;26;20292;-48
2024/04/18 00:55:22;;;;;;;0.10;0.10;;;20.70;46.00;;;;;;5405433;26;20233;-48
2024/04/18 00:57:53;;;;;;;0.00;0.00;;;20.70;46.10;;;;;;5405457;26;20264;-49
2024/04/18 01:00:30;;;;;;;0.00;0.00;;;20.70;46.20;;;;;;5405637;26;20272;-52
2024/04/18 01:03:00;;;;;;;0.00;0.00;;;20.70;46.40;;;;;;5388011;26;20305;-50
2024/04/18 01:05:34;;;;;;;0.00;0.00;;;20.80;46.50;;;;;;5370344;26;20247;-49
2024/04/18 01:08:03;;;;;;;0.00;0.00;;;20.80;46.50;;;;;;5369832;26;20273;-48
2024/04/18 01:10:36;;;;;;;0.00;0.00;;;20.80;46.60;;;;;;5369673;26;20234;-47
2024/04/18 01:13:06;;;;;;;0.00;0.00;;;20.90;46.60;;;;;;5370339;26;20219;-48
2024/04/18 01:15:43;;;;;;;0.10;0.10;;;20.80;46.50;;;;;;5371417;26;20235;-48
2024/04/18 01:18:12;;;;;;;0.00;0.00;;;20.90;46.60;;;;;;5348919;26;20261;-48
2024/04/18 01:20:45;;;;;;;0.00;0.00;;;20.90;46.60;;;;;;5369352;26;20719;-47
2024/04/18 01:23:14;;;;;;;0.00;0.00;;;20.90;46.60;;;;;;5369908;26;20218;-48
2024/04/18 01:25:47;;;;;;;0.00;0.00;;;21.00;46.60;;;;;;5368335;26;20235;-48
2024/04/18 01:28:20;;;;;;;0.00;0.00;;;21.00;46.50;;;;;;5369452;26;20230;-49
2024/04/18 01:30:55;;;;;;;0.00;0.00;;;21.00;46.50;;;;;;5369161;26;20226;-49
2024/04/18 01:33:26;;;;;;;0.10;0.10;;;21.00;46.50;;;;;;5391007;26;20247;-52
2024/04/18 01:35:59;;;;;;;0.08;0.08;;;21.10;46.40;;;;;;5404742;26;20233;-51
2024/04/18 01:38:28;;;;;;;0.00;0.00;;;21.10;46.40;;;;;;5404725;26;20298;-48
2024/04/18 01:41:00;;;;;;;0.10;0.10;;;21.10;46.30;;;;;;5404482;26;20256;-51
2024/04/18 01:43:33;;;;;;;0.00;0.00;;;21.10;46.20;;;;;;5398365;26;21478;-49
2024/04/18 01:46:05;;;;;;;0.00;0.00;;;21.10;46.10;;;;;;5408290;21;20328;-51
2024/04/18 01:48:34;;;;;;;0.00;0.00;;;21.20;46.00;;;;;;5440489;26;20217;-53
2024/04/18 01:51:06;;;;;;;0.03;0.03;;;21.20;45.90;;;;;;5439887;26;20232;-52
2024/04/18 01:53:36;;;;;;;0.10;0.10;;;21.20;45.90;;;;;;5439703;26;20216;-50
2024/04/18 01:56:09;;;;;;;0.00;0.00;;;21.20;45.80;;;;;;5423711;26;20218;-47
2024/04/18 01:58:41;;;;;;;0.10;0.10;;;21.20;45.80;;;;;;5404088;26;20320;-47
2024/04/18 02:01:14;;;;;;;0.10;0.10;;;21.30;45.90;;;;;;5403969;26;20218;-49
2024/04/18 02:03:43;;;;;;;0.10;0.10;;;21.30;45.90;;;;;;5402710;26;20221;-48
2024/04/18 02:06:15;;;;;;;0.00;0.00;;;21.30;45.90;;;;;;5369289;26;20338;-49
2024/04/18 02:08:44;;;;;;;0.10;0.10;;;21.30;45.70;;;;;;5369559;26;20218;-48
2024/04/18 02:11:17;;;;;;;0.00;0.00;;;21.30;45.70;;;;;;5369262;26;20234;-49
2024/04/18 02:13:49;;;;;;;0.00;0.00;;;21.30;45.70;;;;;;5368952;26;20261;-49
2024/04/18 02:16:21;;;;;;;0.03;0.03;;;21.40;45.60;;;;;;5368061;26;20277;-50
2024/04/18 02:18:50;;;;;;;0.00;0.00;;;21.40;45.50;;;;;;5368837;26;20306;-50
2024/04/18 02:21:23;;;;;;;0.03;0.03;;;21.40;45.50;;;;;;5368640;26;20770;-51
2024/04/18 02:23:53;;;;;;;0.00;0.00;;;21.40;45.30;;;;;;5368863;26;20295;-48
2024/04/18 02:26:25;;;;;;;0.00;0.00;;;21.50;45.30;;;;;;5401284;26;20561;-50
2024/04/18 02:28:57;;;;;;;0.03;0.03;;;21.40;45.20;;;;;;5403579;26;20214;-50
2024/04/18 02:31:30;;;;;;;0.00;0.00;;;21.50;45.00;;;;;;5403062;26;20338;-48
2024/04/18 02:33:59;;;;;;;0.10;0.10;;;21.50;45.00;;;;;;5403764;26;20218;-48
2024/04/18 02:36:31;;;;;;;0.00;0.00;;;21.50;45.10;;;;;;5405744;26;20237;-50
2024/04/18 02:39:01;;;;;;;0.00;0.00;;;21.50;45.10;;;;;;5407576;26;20309;-48
2024/04/18 02:41:33;;;;;;;0.00;0.00;;;21.60;45.00;;;;;;5407037;26;20267;-47
2024/04/18 02:44:05;;;;;;;0.00;0.00;;;21.60;45.00;;;;;;5406355;26;20229;-46
2024/04/18 02:46:38;;;;;;;0.00;0.00;;;21.60;45.00;;;;;;5407308;26;20340;-47
2024/04/18 02:49:07;;;;;;;0.03;0.03;;;21.60;45.00;;;;;;5407087;26;20222;-48
2024/04/18 02:51:39;;;;;;;0.03;0.03;;;21.60;45.00;;;;;;5406983;26;20276;-49
2024/04/18 02:54:08;;;;;;;0.03;0.03;;;21.70;45.00;;;;;;5406961;26;20268;-50
2024/04/18 02:56:41;;;;;;;0.00;0.00;;;21.70;45.10;;;;;;5406990;26;20652;-47
2024/04/18 02:59:16;;;;;;;0.10;0.10;;;21.70;44.90;;;;;;5406867;26;20552;-48
2024/04/18 03:01:50;;;;;;;0.00;0.00;;;21.80;44.90;;;;;;5406551;26;20280;-49
2024/04/18 03:04:23;;;;;;;0.00;0.00;;;21.80;44.80;;;;;;5405880;26;20213;-49
2024/04/18 03:06:52;;;;;;;0.00;0.00;;;21.80;44.70;;;;;;5406336;26;20623;-49
2024/04/18 03:09:24;;;;;;;0.00;0.00;;;21.80;44.70;;;;;;5405491;26;20303;-49
2024/04/18 03:11:54;;;;;;;0.00;0.00;;;21.90;44.70;;;;;;5401039;26;20280;-48
2024/04/18 03:14:29;;;;;;;0.00;0.00;;;21.90;44.60;;;;;;5371343;26;20740;-49
2024/04/18 03:16:58;;;;;;;0.10;0.10;;;21.90;44.50;;;;;;5375591;26;20268;-48
2024/04/18 03:19:30;;;;;;;0.10;0.10;;;21.90;44.50;;;;;;5371163;26;20223;-49
2024/04/18 03:22:00;;;;;;;0.03;0.03;;;22.00;44.50;;;;;;5371206;26;20215;-49
2024/04/18 03:24:32;;;;;;;0.00;0.00;;;22.00;44.50;;;;;;5370955;26;20331;-47
2024/04/18 03:27:01;;;;;;;0.00;0.00;;;22.00;44.50;;;;;;5397117;26;20229;-47
2024/04/18 03:29:36;;;;;;;0.00;0.00;;;22.10;44.50;;;;;;5404834;26;20793;-50
2024/04/18 03:32:06;;;;;;;0.00;0.00;;;22.10;44.50;;;;;;5404822;26;20755;-48
2024/04/18 03:34:38;;;;;;;0.08;0.08;;;22.10;44.50;;;;;;5405891;26;20285;-50
2024/04/18 03:37:11;;;;;;;0.00;0.00;;;22.10;44.50;;;;;;5405976;26;20229;-46
2024/04/18 03:39:43;;;;;;;0.00;0.00;;;22.20;44.50;;;;;;5403338;26;20310;-47
2024/04/18 03:42:15;;;;;;;0.10;0.10;;;22.20;44.50;;;;;;5405581;26;20221;-48
2024/04/18 03:44:51;;;;;;;0.10;0.10;;;22.20;44.50;;;;;;5405779;26;20264;-46
2024/04/18 03:47:24;;;;;;;0.00;0.00;;;22.30;44.60;;;;;;5405602;26;20229;-47
2024/04/18 03:49:53;;;;;;;0.00;0.00;;;22.30;44.60;;;;;;5406078;26;20681;-48
2024/04/18 03:52:25;;;;;;;0.00;0.00;;;22.30;44.40;;;;;;5406397;26;20712;-48
2024/04/18 03:54:54;;;;;;;0.08;0.08;;;22.40;44.50;;;;;;5405397;26;20217;-48
2024/04/18 03:57:27;;;;;;;0.08;0.08;;;22.40;44.50;;;;;;5404846;26;20233;-46
2024/04/18 03:59:59;;;;;;;0.10;0.10;;;22.40;44.50;;;;;;5405400;26;20329;-51
2024/04/18 04:02:36;;;;;;;0.00;0.00;;;22.50;44.50;;;;;;5405273;26;20268;-49
2024/04/18 04:05:05;;;;;;;0.00;0.00;;;22.50;44.50;;;;;;5406043;26;20251;-46
2024/04/18 04:07:37;;;;;;;0.00;0.00;;;22.50;44.50;;;;;;5406437;26;20326;-49
2024/04/18 04:10:06;;;;;;;0.00;0.00;;;22.50;44.50;;;;;;5385427;26;20226;-47
2024/04/18 04:12:39;;;;;;;0.00;0.00;;;22.60;44.70;;;;;;5370787;26;20226;-49
2024/04/18 04:15:12;;;;;;;0.00;0.00;;;22.60;44.70;;;;;;5370529;26;20223;-46
2024/04/18 04:17:49;;;;;;;0.00;0.00;;;22.70;44.80;;;;;;5370958;26;20286;-46
2024/04/18 04:20:18;;;;;;;0.00;0.00;;;22.70;44.70;;;;;;5370976;26;20218;-46
2024/04/18 04:22:50;;;;;;;0.10;0.10;;;22.70;44.70;;;;;;5370738;26;20222;-46
2024/04/18 04:25:19;;;;;;;0.00;0.00;;;22.70;44.70;;;;;;5369324;26;20218;-46
2024/04/18 04:27:52;;;;;;;0.00;0.00;;;22.80;44.70;;;;;;5369725;26;20230;-46
2024/04/18 04:30:24;;;;;;;0.00;0.00;;;22.80;44.70;;;;;;5369286;26;20211;-46
2024/04/18 04:32:56;;;;;;;0.00;0.00;;;22.80;44.70;;;;;;5382756;26;20217;-46
2024/04/18 04:35:25;;;;;;;0.00;0.00;;;22.90;44.70;;;;;;5405209;26;20218;-49
2024/04/18 04:37:58;;;;;;;0.00;0.00;;;22.90;44.70;;;;;;5405573;26;20290;-47
2024/04/18 04:40:27;;;;;;;0.00;0.00;;;22.90;44.70;;;;;;5405525;26;20252;-47
2024/04/18 04:42:59;;;;;;;0.00;0.00;;;23.00;44.60;;;;;;5404018;26;20290;-47
2024/04/18 04:45:31;;;;;;;0.00;0.00;;;23.00;44.60;;;;;;5405794;26;20278;-46
2024/04/18 04:48:03;;;;;;;0.00;0.00;;;23.00;44.60;;;;;;5405299;26;20256;-46
2024/04/18 04:50:33;;;;;;;0.00;0.00;;;23.10;44.60;;;;;;5405364;26;20255;-47
2024/04/18 04:53:05;;;;;;;0.00;0.00;;;23.10;44.60;;;;;;5405294;26;20597;-47
2024/04/18 04:55:34;;;;;;;0.00;0.00;;;23.10;44.70;;;;;;5405647;26;20234;-47
2024/04/18 04:58:06;;;;;;;0.00;0.00;;;23.10;44.60;;;;;;5405420;26;20256;-46
2024/04/18 05:00:39;;;;;;;0.10;0.10;;;23.10;44.60;;;;;;5404076;26;20447;-46
2024/04/18 05:03:12;;;;;;;0.00;0.00;;;23.20;44.70;;;;;;5404209;26;20222;-48
2024/04/18 05:05:44;;;;;;;0.00;0.00;;;23.20;44.70;;;;;;5405445;26;20713;-46
2024/04/18 05:08:17;;;;;;;0.00;0.00;;;23.20;44.60;;;;;;5393821;26;20311;-46
2024/04/18 05:10:46;;;;;;;0.10;0.10;;;23.20;44.60;;;;;;5404956;26;20221;-46
2024/04/18 05:13:19;;;;;;;0.00;0.00;;;23.30;44.60;;;;;;5401086;26;20237;-49
2024/04/18 05:15:51;;;;;;;0.10;0.10;;;23.30;44.60;;;;;;5405359;26;20229;-50
2024/04/18 05:18:23;;;;;;;0.00;0.00;;;23.30;44.60;;;;;;5403777;26;20229;-47
2024/04/18 05:20:53;;;;;;;0.10;0.10;;;23.30;44.70;;;;;;5404781;26;20214;-47
2024/04/18 05:23:25;;;;;;;0.00;0.00;;;23.30;44.60;;;;;;5404904;26;20221;-46
2024/04/18 05:25:54;;;;;;;0.10;0.10;;;23.30;44.70;;;;;;5404162;26;20233;-48
2024/04/18 05:28:40;;;;;;;0.00;0.00;;;23.30;44.70;;;;;;5404279;26;20218;-46
2024/04/18 05:31:13;;;;;;;0.00;0.00;;;23.30;44.60;;;;;;5404006;26;20689;-48
2024/04/18 05:33:45;;;;;;;0.00;0.00;;;23.40;44.70;;;;;;5404389;26;20221;-47
2024/04/18 05:36:17;;;;;;;0.00;0.00;;;23.40;44.70;;;;;;5405162;26;20229;-48
2024/04/18 05:38:49;;;;;;;0.00;0.00;;;23.40;44.80;;;;;;5405183;26;20465;-47
2024/04/18 05:41:22;;;;;;;0.00;0.00;;;23.40;44.80;;;;;;5405343;26;20286;-47
2024/04/18 05:43:54;;;;;;;0.00;0.00;;;23.40;44.80;;;;;;5404350;26;20218;-47
2024/04/18 05:46:30;;;;;;;0.10;0.10;;;23.30;44.80;;;;;;5403747;26;20229;-48
2024/04/18 05:49:02;;;;;;;0.00;0.00;;;23.30;44.80;;;;;;5403576;26;20217;-48
2024/04/18 05:51:34;;;;;;;0.00;0.00;;;23.40;44.70;;;;;;5368953;26;20718;-48
2024/04/18 05:54:07;;;;;;;0.08;0.08;;;23.30;44.70;;;;;;5368848;26;20219;-48
2024/04/18 05:56:39;;;;;;;0.08;0.08;;;23.30;44.70;;;;;;5368484;26;20698;-47
2024/04/18 05:59:12;;;;;;;0.00;0.00;;;23.30;44.70;;;;;;5369352;26;20265;-47
2024/04/18 06:01:47;;;;;;;0.00;0.00;;;23.30;44.70;;;;;;5385756;26;20221;-47
2024/04/18 06:04:22;;;;;;;0.00;0.00;;;23.30;44.80;;;;;;5404456;26;20250;-47
2024/04/18 06:06:54;;;;;;;0.00;0.00;;;23.30;44.80;;;;;;5404554;26;20229;-47
2024/04/18 06:09:26;;;;;;;0.00;0.00;;;23.30;44.90;;;;;;5404610;26;20218;-47
2024/04/18 06:11:59;;;;;;;0.00;0.00;;;23.30;44.90;;;;;;5406029;26;20281;-47
2024/04/18 06:14:31;;;;;;;0.00;0.00;;;23.30;45.10;;;;;;5407799;26;20222;-49
2024/04/18 06:17:06;;;;;;;0.00;0.00;;;23.30;44.90;;;;;;5407559;26;20306;-48
2024/04/18 06:19:38;;;;;;;0.10;0.10;;;23.30;44.90;;;;;;5406888;26;20316;-47
2024/04/18 06:22:11;;;;;;;0.00;0.00;;;23.20;44.70;;;;;;5407130;26;20321;-50
2024/04/18 06:24:43;;;;;;;0.00;0.00;;;23.20;44.70;;;;;;5407252;26;20350;-47
2024/04/18 06:27:15;;;;;;;0.00;0.00;;;23.20;44.60;;;;;;5407407;26;20233;-49
2024/04/18 06:29:48;;;;;;;0.03;0.03;;;23.20;44.50;;;;;;5406294;26;20689;-47
2024/04/18 06:32:24;;;;;;;0.00;0.00;;;23.10;44.40;;;;;;5406447;26;20709;-48
2024/04/18 06:34:56;;;;;;;0.00;0.00;;;23.10;44.40;;;;;;5406300;26;20655;-47
2024/04/18 06:37:29;;;;;;;0.10;0.10;;;23.10;44.40;;;;;;5406716;26;20280;-46
2024/04/18 06:40:01;;;;;;;0.00;0.00;;;23.10;44.70;;;;;;5407037;26;20293;-46
2024/04/18 06:42:33;;;;;;;0.00;0.00;;;23.10;44.40;;;;;;5406343;26;20218;-47
2024/04/18 06:45:06;;;;;;;0.10;0.10;;;23.10;44.40;;;;;;5407625;26;20596;-48
2024/04/18 06:47:41;;;;;;;0.10;0.10;;;23.00;44.30;;;;;;5406901;26;20285;-47
2024/04/18 06:50:14;;;;;;;0.00;0.00;;;23.00;44.30;;;;;;5406712;26;20218;-47
2024/04/18 06:52:46;;;;;;;0.00;0.00;;;23.00;44.40;;;;;;5406770;26;20221;-47
2024/04/18 06:55:18;;;;;;;0.10;0.10;;;23.00;44.40;;;;;;5407462;26;20272;-47
2024/04/18 06:57:50;;;;;;;0.05;0.05;;;23.00;44.40;;;;;;5407261;26;20221;-46
2024/04/18 07:00:23;;;;;;;0.10;0.10;;;23.00;44.50;;;;;;5405423;26;20264;-50
2024/04/18 07:02:58;;;;;;;0.00;0.00;;;23.00;44.50;;;;;;5404153;26;20230;-46
2024/04/18 07:05:32;;;;;;;0.03;0.03;;;22.90;44.40;;;;;;5406848;26;20713;-47
2024/04/18 07:08:04;;;;;;;0.00;0.00;;;22.90;44.40;;;;;;5405506;26;20210;-48
2024/04/18 07:10:37;;;;;;;0.00;0.00;;;22.90;44.40;;;;;;5376933;26;20264;-48
2024/04/18 07:13:09;;;;;;;0.00;0.00;;;22.90;44.30;;;;;;5371150;26;20701;-47
2024/04/18 07:15:41;;;;;;;0.00;0.00;;;22.90;44.30;;;;;;5371586;26;20342;-49
2024/04/18 07:18:17;;;;;;;0.00;0.00;;;22.80;44.30;;;;;;5383559;26;20225;-46
2024/04/18 07:20:49;;;;;;;0.00;0.00;;;22.80;44.20;;;;;;5406097;26;20264;-47
2024/04/18 07:23:21;;;;;;;0.00;0.00;;;22.80;44.20;;;;;;5404811;26;20213;-47
2024/04/18 07:25:53;;;;;;;0.10;0.10;;;22.80;44.20;;;;;;5405560;26;20284;-47
2024/04/18 07:28:26;;;;;;;0.00;0.00;;;22.70;44.10;;;;;;5406184;26;20221;-47
2024/04/18 07:30:58;;;;;;;0.00;0.00;;;22.70;44.20;;;;;;5405687;26;20711;-46
2024/04/18 07:33:33;;;;;;;0.10;0.10;;;22.70;44.20;;;;;;5406304;26;20306;-47
2024/04/18 07:36:06;;;;;;;0.00;0.00;;;22.70;44.20;;;;;;5406691;26;20229;-46
2024/04/18 07:38:38;;;;;;;0.00;0.00;;;22.60;44.10;;;;;;5406557;26;20221;-47
2024/04/18 07:41:10;;;;;;;0.10;0.10;;;22.60;44.20;;;;;;5406256;26;20273;-49
2024/04/18 07:43:43;;;;;;;0.00;0.00;;;22.60;44.30;;;;;;5406129;26;20325;-47
2024/04/18 07:46:15;;;;;;;0.00;0.00;;;22.60;44.30;;;;;;5406560;26;20230;-49
2024/04/18 07:50:40;;;;;;;0.03;0.03;;;22.50;43.80;;;;;;5464733;25;20587;-47
2024/04/18 07:53:12;;;;;;;0.00;0.00;;;22.50;44.20;;;;;;5453232;26;20216;-45
2024/04/18 07:55:46;;;;;;;0.00;0.00;;;22.50;44.90;;;;;;5452222;26;20330;-47
2024/04/18 07:58:19;;;;;;;0.08;0.08;;;22.40;44.30;;;;;;5415595;26;20243;-47
2024/04/18 08:00:54;;;;;;;0.10;0.10;;;22.40;44.30;;;;;;5432704;26;20229;-48
2024/04/18 08:03:26;;;;;;;0.10;0.10;;;22.40;44.30;;;;;;5432977;26;20253;-45
2024/04/18 08:06:02;;;;;;;0.03;0.03;;;22.40;44.30;;;;;;5432910;26;20643;-46
2024/04/18 08:08:34;;;;;;;0.10;0.10;;;22.40;44.30;;;;;;5432907;26;20302;-47
2024/04/18 08:11:08;;;;;;;0.00;0.00;;;22.40;44.30;;;;;;5432574;26;20712;-47
2024/04/18 08:13:41;;;;;;;0.10;0.10;;;22.40;44.20;;;;;;5431908;26;20688;-49
2024/04/18 08:16:13;;;;;;;0.00;0.00;;;22.40;44.20;;;;;;5430053;26;20241;-46
2024/04/18 08:18:45;;;;;;;0.10;0.10;;;22.30;44.10;;;;;;5432587;26;20217;-46
2024/04/18 08:21:21;;;;;;;0.00;0.00;;;22.30;44.10;;;;;;5432284;26;20743;-47
2024/04/18 08:23:56;;;;;;;0.00;0.00;;;22.30;44.10;;;;;;5431752;26;20270;-48
2024/04/18 08:26:25;;;;;;;0.00;0.00;;;22.30;44.10;;;;;;5428945;26;20266;-45
2024/04/18 08:28:58;;;;;;;0.10;0.10;;;22.30;44.10;;;;;;5432404;26;20255;-47
2024/04/18 08:31:34;;;;;;;0.00;0.00;;;22.30;44.10;;;;;;5432877;26;20697;-47
2024/04/18 08:34:06;;;;;;;0.00;0.00;;;22.20;44.00;;;;;;5432483;26;20224;-48
2024/04/18 08:36:41;;;;;;;0.08;0.08;;;22.20;44.00;;;;;;5432298;26;20318;-46
2024/04/18 08:39:15;;;;;;;0.08;0.08;;;22.20;44.00;;;;;;5432784;26;20736;-47
2024/04/18 08:41:48;;;;;;;0.00;0.00;;;22.10;44.00;;;;;;5432075;26;20308;-47
2024/04/18 08:44:20;;;;;;;0.10;0.10;;;22.10;44.00;;;;;;5432771;26;20217;-45
2024/04/18 08:46:55;;;;;;;0.00;0.00;;;22.10;44.00;;;;;;5432443;26;20265;-46
2024/04/18 08:49:29;;;;;;;0.10;0.10;;;22.10;44.00;;;;;;5452440;26;20219;-45
2024/04/18 08:52:07;;;;;;;0.00;0.00;;;22.10;44.00;;;;;;5465906;26;20211;-43
2024/04/18 08:54:39;;;;;;;0.00;0.00;;;22.10;44.00;;;;;;5464891;26;20212;-45
2024/04/18 08:57:17;;;;;;;0.10;0.10;;;22.00;43.80;;;;;;5459724;26;20232;-46
2024/04/18 08:59:51;;;;;;;0.00;0.00;;;22.00;43.80;;;;;;5447966;26;20212;-47
2024/04/18 09:02:24;;;;;;;0.10;0.10;;;22.00;43.70;;;;;;5447749;26;20284;-47
2024/04/18 09:04:56;;;;;;;0.10;0.10;;;22.00;43.50;;;;;;5447302;26;20804;-48
2024/04/18 09:07:31;;;;;;;0.10;0.10;;;22.00;43.40;;;;;;5447194;26;20711;-48
2024/04/18 09:10:11;;;;;;;0.13;0.13;;;22.00;43.40;;;;;;5447519;26;20224;-47
2024/04/18 09:12:43;;;;;;;0.00;0.00;;;22.00;43.30;;;;;;5447689;26;20540;-46
2024/04/18 09:15:17;;;;;;;0.00;0.00;;;22.10;43.30;;;;;;5448023;26;20606;-46
2024/04/18 09:18:01;;;;;;;0.00;0.00;;;22.00;43.20;;;;;;5447212;26;20228;-48
2024/04/18 09:20:34;;;;;;;0.00;0.00;;;22.00;43.10;;;;;;5447412;26;20679;-46
2024/04/18 09:23:10;;;;;;;0.00;0.00;;;22.00;43.10;;;;;;5447020;26;20297;-48
2024/04/18 09:25:42;;;;;;;0.00;0.00;;;22.00;43.00;;;;;;5447324;26;20319;-46
2024/04/18 09:28:14;;;;;;;0.10;0.10;;;22.00;43.00;;;;;;5448391;26;20267;-46
2024/04/18 09:30:47;;;;;;;0.00;0.00;;;22.00;42.90;;;;;;5446544;26;20211;-45
2024/04/18 09:33:19;;;;;;;0.00;0.00;;;22.00;42.80;;;;;;5448498;26;20220;-47
2024/04/18 09:35:59;;;;;;;0.10;0.10;;;22.00;42.80;;;;;;5446942;26;20577;-48
2024/04/18 09:38:35;;;;;;;0.00;0.00;;;22.00;42.70;;;;;;5445680;26;20223;-48
2024/04/18 09:41:14;;;;;;;0.10;0.10;;;22.00;42.70;;;;;;5447448;26;20638;-50
2024/04/18 09:43:53;;;;;;;0.10;0.10;;;22.00;42.60;;;;;;5447570;26;20228;-47
2024/04/18 09:46:26;;;;;;;0.00;0.00;;;22.00;42.70;;;;;;5445688;26;20328;-46
2024/04/18 09:49:01;;;;;;;0.10;0.10;;;22.00;42.60;;;;;;5445339;26;20324;-47
2024/04/18 09:51:33;;;;;;;0.00;0.00;;;22.00;42.60;;;;;;5447096;26;20219;-46
2024/04/18 09:54:13;;;;;;;0.03;0.03;;;22.00;42.60;;;;;;5446747;26;20212;-48
2024/04/18 09:56:46;;;;;;;0.00;0.00;;;22.00;42.50;;;;;;5447955;26;20259;-45
2024/04/18 09:59:19;;;;;;;0.00;0.00;;;21.90;42.50;;;;;;5445977;26;20354;-45
2024/04/18 10:01:52;;;;;;;0.00;0.00;;;21.90;42.50;;;;;;5447143;26;20324;-47
2024/04/18 10:04:25;;;;;;;0.00;0.00;;;21.90;42.60;;;;;;5446043;26;20244;-46
2024/04/18 10:06:59;;;;;;;0.00;0.00;;;21.90;42.60;;;;;;5412032;26;20229;-48
2024/04/18 10:09:35;;;;;;;0.00;0.00;;;21.90;42.60;;;;;;5411522;26;20541;-45
2024/04/18 10:12:09;;;;;;;0.00;0.00;;;21.90;42.50;;;;;;5410185;26;20209;-52
2024/04/18 10:14:42;;;;;;;0.00;0.00;;;21.90;42.60;;;;;;5415697;26;20271;-46
2024/04/18 10:17:28;;;;;;;0.05;0.05;;;21.80;42.40;;;;;;5444538;26;20216;-45
2024/04/18 10:20:04;;;;;;;0.00;0.00;;;21.80;42.30;;;;;;5446899;26;20871;-45
2024/04/18 10:22:39;;;;;;;0.00;0.00;;;21.80;42.30;;;;;;5446949;26;20219;-46
2024/04/18 10:25:22;;;;;;;0.00;0.00;;;21.80;42.20;;;;;;5446794;26;20781;-47
2024/04/18 10:27:55;;;;;;;0.10;0.10;;;21.80;42.20;;;;;;5447089;26;20224;-46
2024/04/18 10:30:28;;;;;;;0.10;0.10;;;21.80;42.20;;;;;;5447608;26;20220;-46
2024/04/18 10:33:01;;;;;;;0.10;0.10;;;21.80;42.30;;;;;;5446114;26;20271;-52
2024/04/18 10:35:34;;;;;;;0.08;0.08;;;21.80;42.30;;;;;;5446495;26;20271;-46
2024/04/18 10:38:07;;;;;;;0.00;0.00;;;21.80;42.30;;;;;;5446222;26;20220;-45
2024/04/18 10:41:03;;;;;;;0.00;0.00;;;21.70;42.30;;;;;;5446105;26;20331;-46
2024/04/18 10:43:37;;;;;;;0.10;0.10;;;21.70;42.20;;;;;;5444913;26;20700;-52
2024/04/18 10:46:12;;;;;;;0.00;0.00;;;21.70;42.20;;;;;;5447403;26;20227;-46
2024/04/18 10:48:45;;;;;;;0.00;0.00;;;21.70;42.30;;;;;;5447159;26;20261;-46
2024/04/18 10:51:20;;;;;;;0.05;0.05;;;21.70;42.30;;;;;;5446295;26;20216;-46
2024/04/18 10:53:49;;;;;;;0.00;0.00;;;21.70;42.20;;;;;;5445868;26;20208;-46
2024/04/18 10:56:25;;;;;;;0.10;0.10;;;21.60;42.20;;;;;;5445241;26;20220;-46
2024/04/18 10:58:58;;;;;;;0.00;0.00;;;21.60;42.10;;;;;;5446678;26;20248;-46
2024/04/18 11:01:31;;;;;;;0.00;0.00;;;21.60;42.10;;;;;;5445705;26;20216;-46
2024/04/18 11:04:03;;;;;;;0.00;0.00;;;21.60;42.10;;;;;;5445775;26;20681;-46
2024/04/18 11:06:36;;;;;;;0.00;0.00;;;21.60;42.10;;;;;;5446100;26;20228;-46
2024/04/18 11:09:08;;;;;;;0.10;0.10;;;21.50;42.00;;;;;;5445114;26;20224;-46
2024/04/18 11:11:43;;;;;;;0.03;0.03;;;21.50;41.90;;;;;;5446606;26;20259;-45
2024/04/18 11:14:17;;;;;;;0.10;0.10;;;21.50;42.00;;;;;;5445052;26;20219;-45
2024/04/18 11:16:49;;;;;;;0.00;0.00;;;21.50;42.00;;;;;;5447033;26;20279;-45
2024/04/18 11:19:21;;;;;;;0.03;0.03;;;21.50;42.00;;;;;;5445388;26;20297;-44
2024/04/18 11:21:54;;;;;;;0.00;0.00;;;21.50;42.00;;;;;;5445346;26;20836;-46
2024/04/18 11:24:27;;;;;;;0.00;0.00;;;21.50;42.10;;;;;;5444601;26;20221;-45
2024/04/18 11:27:06;;;;;;;0.00;0.00;;;21.40;42.00;;;;;;5444504;26;20267;-44
2024/04/18 11:29:40;;;;;;;0.10;0.10;;;21.40;42.00;;;;;;5445492;26;20220;-46
2024/04/18 11:32:15;;;;;;;0.00;0.00;;;21.40;42.00;;;;;;5446312;26;20606;-46
2024/04/18 11:34:47;;;;;;;0.10;0.10;;;21.40;42.00;;;;;;5445067;26;20224;-47
2024/04/18 11:37:19;;;;;;;0.10;0.10;;;21.40;42.00;;;;;;5427771;26;20321;-45
2024/04/18 11:39:52;;;;;;;0.10;0.10;;;21.30;42.00;;;;;;5449864;26;20281;-47
2024/04/18 11:42:27;;;;;;;0.10;0.10;;;21.30;42.40;;;;;;5448001;26;20224;-45
2024/04/18 11:44:59;;;;;;;0.00;0.00;;;21.30;42.60;;;;;;5445156;26;20216;-45
2024/04/18 11:47:28;;;;;;;0.10;0.10;;;21.30;42.80;;;;;;5450532;26;20232;-47
2024/04/18 11:50:01;;;;;;;0.00;0.00;;;21.30;42.90;;;;;;5444810;26;20239;-47
2024/04/18 11:52:33;;;;;;;0.08;0.08;;;21.30;42.80;;;;;;5448941;26;20711;-45
2024/04/18 11:55:05;;;;;;;0.10;0.10;;;21.30;42.50;;;;;;5450229;26;20261;-46
2024/04/18 11:57:41;;;;;;;0.10;0.10;;;21.30;42.40;;;;;;5449931;26;20231;-46
2024/04/18 12:00:11;;;;;;;0.10;0.10;;;21.30;42.20;;;;;;5449390;26;20287;-47
2024/04/18 12:02:43;;;;;;;0.10;0.10;;;21.30;42.10;;;;;;5445356;26;20811;-47
2024/04/18 12:05:15;;;;;;;0.15;0.15;;;21.30;42.10;;;;;;5449011;26;20224;-47
2024/04/18 12:07:48;;;;;;;0.10;0.10;;;21.30;42.00;;;;;;5448643;26;20228;-46
2024/04/18 12:10:20;;;;;;;0.00;0.00;;;21.30;42.00;;;;;;5443674;26;20261;-45
2024/04/18 12:12:56;;;;;;;0.00;0.00;;;21.30;42.00;;;;;;5449537;26;20216;-46
2024/04/18 12:15:28;;;;;;;0.10;0.10;;;21.20;42.00;;;;;;5448272;26;20323;-47
2024/04/18 12:18:02;;;;;;;0.00;0.00;;;21.20;42.10;;;;;;5445015;26;20332;-46
2024/04/18 12:20:34;;;;;;;0.10;0.10;;;21.20;42.10;;;;;;5449373;26;20216;-44
2024/04/18 12:23:06;;;;;;;0.03;0.03;;;21.20;42.20;;;;;;5440807;26;20696;-47
2024/04/18 12:25:38;;;;;;;0.10;0.10;;;21.20;42.20;;;;;;5449610;26;20221;-47
2024/04/18 12:28:14;;;;;;;0.10;0.10;;;21.20;42.30;;;;;;5450025;26;20270;-47
2024/04/18 12:30:46;;;;;;;0.10;0.10;;;21.20;42.30;;;;;;5450467;26;20254;-47
2024/04/18 12:33:18;;;;;;;0.00;0.00;;;21.10;42.10;;;;;;5450129;26;20220;-47
2024/04/18 12:35:51;;;;;;;0.10;0.10;;;21.10;42.00;;;;;;5449004;26;20224;-47
2024/04/18 12:38:23;;;;;;;0.10;0.10;;;21.10;42.00;;;;;;5453161;26;20216;-45
2024/04/18 12:40:55;;;;;;;0.10;0.10;;;21.10;41.80;;;;;;5453639;26;20318;-45
2024/04/18 12:43:31;;;;;;;0.00;0.00;;;21.00;41.50;;;;;;5453677;26;20216;-45
2024/04/18 12:46:03;;;;;;;0.08;0.08;;;21.10;41.50;;;;;;5453788;26;20250;-46
2024/04/18 12:48:35;;;;;;;0.00;0.00;;;21.00;41.40;;;;;;5453767;26;20228;-45
2024/04/18 12:51:08;;;;;;;0.10;0.10;;;21.00;41.30;;;;;;5453434;26;20220;-47
2024/04/18 12:53:40;;;;;;;0.00;0.00;;;21.00;41.20;;;;;;5453779;26;20216;-47
2024/04/18 12:56:13;;;;;;;0.00;0.00;;;21.00;41.20;;;;;;5453633;26;20600;-45
2024/04/18 12:58:49;;;;;;;0.10;0.10;;;21.00;41.20;;;;;;5453052;26;20221;-46
2024/04/18 13:01:21;;;;;;;0.10;0.10;;;21.00;41.20;;;;;;5452779;26;20250;-46
2024/04/18 13:03:53;;;;;;;0.00;0.00;;;20.90;41.20;;;;;;5452889;26;20216;-47
2024/04/18 13:06:26;;;;;;;0.10;0.10;;;20.90;41.20;;;;;;5452260;26;20229;-47
2024/04/18 13:08:59;;;;;;;0.10;0.10;;;20.90;41.80;;;;;;5452828;26;20217;-44
2024/04/18 13:11:31;;;;;;;0.10;0.10;;;20.90;41.20;;;;;;5452645;26;20270;-45
2024/04/18 13:14:06;;;;;;;0.10;0.10;;;20.90;41.10;;;;;;5452825;26;20224;-45
2024/04/18 13:16:39;;;;;;;0.10;0.10;;;20.80;41.00;;;;;;5453278;26;20598;-45
2024/04/18 13:19:11;;;;;;;0.00;0.00;;;20.90;41.00;;;;;;5453463;26;20212;-47